TimeCDT,TemperatureF,Dew PointF,Humidity,Sea Level PressureIn,VisibilityMPH,Wind Direction,Wind SpeedMPH,Gust SpeedMPH,PrecipitationIn,Events,Conditions,WindDirDegrees,DateUTC
12:53 AM,46.9,39.9,77,29.80,10.0,WSW,8.1,-,N/A,,Mostly Cloudy,240,2013-03-11 05:53:00
1:53 AM,45.0,37.9,76,29.81,10.0,SW,8.1,-,N/A,,Mostly Cloudy,230,2013-03-11 06:53:00
2:04 AM,44.6,37.4,76,29.80,10.0,WSW,9.2,-,N/A,,Mostly Cloudy,240,2013-03-11 07:04:00
2:53 AM,45.0,37.9,76,29.78,10.0,WSW,6.9,-,N/A,,Overcast,240,2013-03-11 07:53:00
3:53 AM,43.0,35.1,74,29.79,10.0,West,8.1,-,N/A,,Mostly Cloudy,270,2013-03-11 08:53:00
4:53 AM,42.1,34.0,73,29.80,10.0,West,12.7,-,N/A,,Overcast,260,2013-03-11 09:53:00
5:53 AM,41.0,33.1,73,29.80,10.0,WNW,18.4,24.2,N/A,,Overcast,290,2013-03-11 10:53:00
6:07 AM,39.2,32.0,75,29.80,10.0,West,13.8,21.9,N/A,,Overcast,280,2013-03-11 11:07:00
6:14 AM,39.2,32.0,75,29.80,10.0,West,12.7,21.9,N/A,,Overcast,280,2013-03-11 11:14:00
6:53 AM,39.0,30.9,73,29.83,10.0,West,9.2,-,N/A,,Overcast,260,2013-03-11 11:53:00
7:53 AM,37.9,30.9,76,29.84,10.0,West,10.4,18.4,N/A,,Overcast,280,2013-03-11 12:53:00
8:53 AM,37.9,28.9,70,29.86,10.0,West,12.7,-,N/A,,Overcast,270,2013-03-11 13:53:00
9:53 AM,37.9,28.9,70,29.89,10.0,West,12.7,20.7,N/A,,Overcast,260,2013-03-11 14:53:00
10:53 AM,37.9,28.0,68,29.88,10.0,West,15.0,21.9,N/A,,Overcast,280,2013-03-11 15:53:00
11:53 AM,39.9,28.9,65,29.89,10.0,WNW,16.1,-,N/A,,Overcast,300,2013-03-11 16:53:00
12:53 PM,39.9,28.9,65,29.91,10.0,West,12.7,20.7,N/A,,Overcast,280,2013-03-11 17:53:00
1:43 PM,41.0,28.4,61,29.88,10.0,West,13.8,-,N/A,,Mostly Cloudy,270,2013-03-11 18:43:00
1:53 PM,42.1,28.9,60,29.89,10.0,West,16.1,21.9,N/A,,Overcast,280,2013-03-11 18:53:00
2:53 PM,42.1,28.9,60,29.88,10.0,WNW,9.2,-,N/A,,Overcast,290,2013-03-11 19:53:00
3:53 PM,43.0,28.9,58,29.90,10.0,WNW,12.7,-,N/A,,Overcast,300,2013-03-11 20:53:00
4:53 PM,42.1,28.0,58,29.92,10.0,WNW,13.8,-,N/A,,Overcast,290,2013-03-11 21:53:00
5:53 PM,41.0,28.0,60,29.94,10.0,WNW,9.2,-,N/A,,Overcast,290,2013-03-11 22:53:00
6:53 PM,41.0,28.0,60,29.96,10.0,WNW,6.9,-,N/A,,Overcast,290,2013-03-11 23:53:00
7:53 PM,41.0,28.0,60,29.98,10.0,West,8.1,-,N/A,,Overcast,270,2013-03-12 00:53:00
8:53 PM,37.9,27.0,65,30.00,10.0,NW,3.5,-,N/A,,Partly Cloudy,310,2013-03-12 01:53:00
9:53 PM,35.1,28.9,78,30.02,10.0,Calm,Calm,-,N/A,,Clear,0,2013-03-12 02:53:00
10:53 PM,34.0,27.0,75,30.04,10.0,Calm,Calm,-,N/A,,Clear,0,2013-03-12 03:53:00
11:53 PM,33.1,28.9,85,30.04,10.0,Calm,Calm,-,N/A,,Clear,0,2013-03-12 04:53:00